sensor_id;sensor_type;location;lat;lon;timestamp;pressure;altitude;pressure_sealevel;temperature;humidity
43503;BME280;29098;48.184;16.298;2024-02-26T00:01:07;98105.16;;;6.39;97.58
43503;BME280;29098;48.184;16.298;2024-02-26T00:03:32;98107.63;;;6.25;98.75
43503;BME280;29098;48.184;16.298;2024-02-26T00:06:01;98106.81;;;6.25;99.67
43503;BME280;29098;48.184;16.298;2024-02-26T00:08:27;98096.66;;;6.15;100.00
43503;BME280;29098;48.184;16.298;2024-02-26T00:10:53;98060.56;;;5.95;100.00
43503;BME280;29098;48.184;16.298;2024-02-26T00:13:19;98095.13;;;6.06;100.00
43503;BME280;29098;48.184;16.298;2024-02-26T00:15:45;98100.38;;;6.06;100.00
43503;BME280;29098;48.184;16.298;2024-02-26T00:18:11;98138.25;;;6.10;100.00
43503;BME280;29098;48.184;16.298;2024-02-26T00:20:36;98113.97;;;6.01;100.00
43503;BME280;29098;48.184;16.298;2024-02-26T00:23:02;98094.31;;;5.90;100.00
43503;BME280;29098;48.184;16.298;2024-02-26T00:25:27;98100.47;;;5.67;100.00
43503;BME280;29098;48.184;16.298;2024-02-26T00:27:52;98080.97;;;5.55;100.00
43503;BME280;29098;48.184;16.298;2024-02-26T00:30:18;98061.34;;;5.29;100.00
43503;BME280;29098;48.184;16.298;2024-02-26T00:32:43;98128.75;;;5.48;100.00
43503;BME280;29098;48.184;16.298;2024-02-26T00:35:09;98095.00;;;5.24;100.00
43503;BME280;29098;48.184;16.298;2024-02-26T00:37:35;98079.13;;;5.10;100.00
43503;BME280;29098;48.184;16.298;2024-02-26T00:40:00;98082.41;;;5.12;100.00
43503;BME280;29098;48.184;16.298;2024-02-26T00:42:26;98090.88;;;5.14;100.00
43503;BME280;29098;48.184;16.298;2024-02-26T00:44:52;98056.69;;;4.86;100.00
43503;BME280;29098;48.184;16.298;2024-02-26T00:47:17;98090.56;;;4.71;100.00
43503;BME280;29098;48.184;16.298;2024-02-26T00:49:43;98086.97;;;4.72;100.00
43503;BME280;29098;48.184;16.298;2024-02-26T00:52:08;98037.56;;;4.47;100.00
43503;BME280;29098;48.184;16.298;2024-02-26T00:54:34;98049.50;;;4.64;100.00
43503;BME280;29098;48.184;16.298;2024-02-26T00:56:59;98085.03;;;4.65;100.00
43503;BME280;29098;48.184;16.298;2024-02-26T00:59:24;98093.69;;;4.66;100.00
43503;BME280;29098;48.184;16.298;2024-02-26T01:01:50;98069.97;;;4.52;100.00
43503;BME280;29098;48.184;16.298;2024-02-26T01:04:15;98037.09;;;4.20;100.00
43503;BME280;29098;48.184;16.298;2024-02-26T01:06:41;98041.66;;;4.18;100.00
43503;BME280;29098;48.184;16.298;2024-02-26T01:09:06;98070.84;;;4.45;100.00
43503;BME280;29098;48.184;16.298;2024-02-26T01:11:32;98090.19;;;4.27;100.00
43503;BME280;29098;48.184;16.298;2024-02-26T01:13:57;98045.41;;;4.15;100.00
43503;BME280;29098;48.184;16.298;2024-02-26T01:16:23;98043.06;;;4.05;100.00
43503;BME280;29098;48.184;16.298;2024-02-26T01:18:49;98008.03;;;4.00;100.00
43503;BME280;29098;48.184;16.298;2024-02-26T01:21:15;98042.53;;;4.33;100.00
43503;BME280;29098;48.184;16.298;2024-02-26T01:23:40;98063.28;;;4.50;100.00
43503;BME280;29098;48.184;16.298;2024-02-26T01:26:05;98068.03;;;4.93;100.00
43503;BME280;29098;48.184;16.298;2024-02-26T01:28:31;98046.81;;;4.73;100.00
43503;BME280;29098;48.184;16.298;2024-02-26T01:30:57;98038.13;;;4.96;100.00
43503;BME280;29098;48.184;16.298;2024-02-26T01:33:24;98035.63;;;5.17;100.00
43503;BME280;29098;48.184;16.298;2024-02-26T01:35:50;98052.28;;;5.01;100.00
43503;BME280;29098;48.184;16.298;2024-02-26T01:38:15;98018.59;;;4.91;100.00
43503;BME280;29098;48.184;16.298;2024-02-26T01:40:41;98025.59;;;4.76;100.00
43503;BME280;29098;48.184;16.298;2024-02-26T01:43:06;98002.50;;;4.64;100.00
43503;BME280;29098;48.184;16.298;2024-02-26T01:45:32;98005.66;;;4.60;100.00
43503;BME280;29098;48.184;16.298;2024-02-26T01:47:57;98008.50;;;4.50;100.00
43503;BME280;29098;48.184;16.298;2024-02-26T01:50:23;98014.56;;;4.65;100.00
43503;BME280;29098;48.184;16.298;2024-02-26T01:52:50;98014.44;;;4.44;100.00
43503;BME280;29098;48.184;16.298;2024-02-26T01:55:18;98016.72;;;4.62;100.00
43503;BME280;29098;48.184;16.298;2024-02-26T01:57:45;98009.81;;;4.69;100.00
43503;BME280;29098;48.184;16.298;2024-02-26T02:00:12;97987.13;;;4.31;100.00
43503;BME280;29098;48.184;16.298;2024-02-26T02:02:39;98038.38;;;4.47;100.00
43503;BME280;29098;48.184;16.298;2024-02-26T02:05:07;98044.28;;;4.41;100.00
43503;BME280;29098;48.184;16.298;2024-02-26T02:07:34;98003.47;;;4.25;100.00
43503;BME280;29098;48.184;16.298;2024-02-26T02:10:00;97979.53;;;3.98;100.00
43503;BME280;29098;48.184;16.298;2024-02-26T02:12:27;97995.84;;;3.92;100.00
43503;BME280;29098;48.184;16.298;2024-02-26T02:14:52;97998.56;;;3.98;100.00
43503;BME280;29098;48.184;16.298;2024-02-26T02:17:19;97977.34;;;3.78;100.00
43503;BME280;29098;48.184;16.298;2024-02-26T02:19:44;98009.97;;;3.74;100.00
43503;BME280;29098;48.184;16.298;2024-02-26T02:22:10;97987.78;;;3.78;100.00
43503;BME280;29098;48.184;16.298;2024-02-26T02:24:35;98047.50;;;3.96;100.00
43503;BME280;29098;48.184;16.298;2024-02-26T02:27:01;98047.59;;;4.03;100.00
43503;BME280;29098;48.184;16.298;2024-02-26T02:29:26;98017.56;;;3.84;100.00
43503;BME280;29098;48.184;16.298;2024-02-26T02:31:53;98046.03;;;3.94;100.00
43503;BME280;29098;48.184;16.298;2024-02-26T02:34:19;98004.09;;;3.72;100.00
43503;BME280;29098;48.184;16.298;2024-02-26T02:36:51;98036.50;;;3.78;100.00
43503;BME280;29098;48.184;16.298;2024-02-26T02:39:17;97982.06;;;3.51;100.00
43503;BME280;29098;48.184;16.298;2024-02-26T02:41:42;97970.47;;;3.54;100.00
43503;BME280;29098;48.184;16.298;2024-02-26T02:44:07;98020.09;;;3.69;100.00
43503;BME280;29098;48.184;16.298;2024-02-26T02:46:33;97980.41;;;3.59;100.00
43503;BME280;29098;48.184;16.298;2024-02-26T02:49:00;97979.31;;;3.76;100.00
43503;BME280;29098;48.184;16.298;2024-02-26T02:51:25;97955.31;;;3.58;100.00
43503;BME280;29098;48.184;16.298;2024-02-26T02:53:51;97972.59;;;3.59;100.00
43503;BME280;29098;48.184;16.298;2024-02-26T02:56:17;97959.03;;;3.63;100.00
43503;BME280;29098;48.184;16.298;2024-02-26T02:58:42;97993.78;;;3.87;100.00
43503;BME280;29098;48.184;16.298;2024-02-26T03:01:07;97966.81;;;3.95;100.00
43503;BME280;29098;48.184;16.298;2024-02-26T03:03:33;97997.38;;;4.09;100.00
43503;BME280;29098;48.184;16.298;2024-02-26T03:05:58;97984.22;;;4.26;100.00
43503;BME280;29098;48.184;16.298;2024-02-26T03:08:24;97994.50;;;4.43;100.00
43503;BME280;29098;48.184;16.298;2024-02-26T03:10:51;97999.16;;;4.32;100.00
43503;BME280;29098;48.184;16.298;2024-02-26T03:13:16;97989.97;;;4.45;100.00
43503;BME280;29098;48.184;16.298;2024-02-26T03:15:42;97956.16;;;4.28;100.00
43503;BME280;29098;48.184;16.298;2024-02-26T03:18:08;97951.53;;;4.15;100.00
43503;BME280;29098;48.184;16.298;2024-02-26T03:20:33;97965.16;;;4.25;100.00
43503;BME280;29098;48.184;16.298;2024-02-26T03:22:58;97954.94;;;4.16;100.00
43503;BME280;29098;48.184;16.298;2024-02-26T03:25:24;97981.34;;;4.21;100.00
43503;BME280;29098;48.184;16.298;2024-02-26T03:27:49;97988.63;;;4.02;100.00
43503;BME280;29098;48.184;16.298;2024-02-26T03:30:15;97958.47;;;4.00;100.00
43503;BME280;29098;48.184;16.298;2024-02-26T03:32:41;97985.47;;;4.07;100.00
43503;BME280;29098;48.184;16.298;2024-02-26T03:35:06;97956.16;;;3.81;100.00
43503;BME280;29098;48.184;16.298;2024-02-26T03:37:33;97995.75;;;4.08;100.00
43503;BME280;29098;48.184;16.298;2024-02-26T03:39:58;97952.75;;;3.81;100.00
43503;BME280;29098;48.184;16.298;2024-02-26T03:42:24;97967.69;;;3.87;100.00
43503;BME280;29098;48.184;16.298;2024-02-26T03:44:49;97993.88;;;3.94;100.00
43503;BME280;29098;48.184;16.298;2024-02-26T03:47:16;97956.59;;;3.85;100.00
43503;BME280;29098;48.184;16.298;2024-02-26T03:49:41;97910.63;;;3.69;100.00
43503;BME280;29098;48.184;16.298;2024-02-26T03:52:07;97955.00;;;3.84;100.00
43503;BME280;29098;48.184;16.298;2024-02-26T03:54:32;97985.00;;;4.03;100.00
43503;BME280;29098;48.184;16.298;2024-02-26T03:56:57;97977.34;;;4.10;100.00
43503;BME280;29098;48.184;16.298;2024-02-26T03:59:23;97939.34;;;3.84;100.00
43503;BME280;29098;48.184;16.298;2024-02-26T04:01:50;97968.22;;;3.82;100.00
43503;BME280;29098;48.184;16.298;2024-02-26T04:04:16;97941.78;;;3.86;100.00
43503;BME280;29098;48.184;16.298;2024-02-26T04:06:45;97968.03;;;3.84;100.00
43503;BME280;29098;48.184;16.298;2024-02-26T04:09:12;97972.50;;;3.98;100.00
43503;BME280;29098;48.184;16.298;2024-02-26T04:11:38;97939.25;;;3.77;100.00
43503;BME280;29098;48.184;16.298;2024-02-26T04:14:03;97909.34;;;3.65;100.00
43503;BME280;29098;48.184;16.298;2024-02-26T04:16:29;97968.84;;;3.84;100.00
43503;BME280;29098;48.184;16.298;2024-02-26T04:18:54;97959.47;;;3.75;100.00
43503;BME280;29098;48.184;16.298;2024-02-26T04:21:20;97939.13;;;3.70;100.00
43503;BME280;29098;48.184;16.298;2024-02-26T04:23:45;97969.94;;;3.90;100.00
43503;BME280;29098;48.184;16.298;2024-02-26T04:26:11;97968.91;;;4.23;100.00
43503;BME280;29098;48.184;16.298;2024-02-26T04:28:36;97930.69;;;3.92;100.00
43503;BME280;29098;48.184;16.298;2024-02-26T04:31:02;97976.09;;;3.97;100.00
43503;BME280;29098;48.184;16.298;2024-02-26T04:33:27;97958.38;;;3.93;100.00
43503;BME280;29098;48.184;16.298;2024-02-26T04:35:53;97982.41;;;4.03;100.00
43503;BME280;29098;48.184;16.298;2024-02-26T04:38:18;97925.91;;;3.72;100.00
43503;BME280;29098;48.184;16.298;2024-02-26T04:40:44;97956.50;;;3.78;100.00
43503;BME280;29098;48.184;16.298;2024-02-26T04:43:09;97929.03;;;3.67;100.00
43503;BME280;29098;48.184;16.298;2024-02-26T04:45:35;97961.03;;;3.84;100.00
43503;BME280;29098;48.184;16.298;2024-02-26T04:48:00;97973.44;;;3.82;100.00
43503;BME280;29098;48.184;16.298;2024-02-26T04:50:26;97942.94;;;3.60;100.00
43503;BME280;29098;48.184;16.298;2024-02-26T04:52:51;97951.84;;;3.89;100.00
43503;BME280;29098;48.184;16.298;2024-02-26T04:55:16;97963.94;;;4.13;100.00
43503;BME280;29098;48.184;16.298;2024-02-26T04:57:42;97909.25;;;3.81;100.00
43503;BME280;29098;48.184;16.298;2024-02-26T05:00:08;97954.00;;;3.85;100.00
43503;BME280;29098;48.184;16.298;2024-02-26T05:02:35;97927.03;;;3.78;100.00
43503;BME280;29098;48.184;16.298;2024-02-26T05:05:04;97946.06;;;3.78;100.00
43503;BME280;29098;48.184;16.298;2024-02-26T05:07:30;97964.56;;;3.92;100.00
43503;BME280;29098;48.184;16.298;2024-02-26T05:09:55;97938.09;;;3.80;100.00
43503;BME280;29098;48.184;16.298;2024-02-26T05:12:21;97979.00;;;4.03;100.00
43503;BME280;29098;48.184;16.298;2024-02-26T05:14:46;97948.34;;;3.81;100.00
43503;BME280;29098;48.184;16.298;2024-02-26T05:17:12;97979.78;;;3.80;100.00
43503;BME280;29098;48.184;16.298;2024-02-26T05:19:37;97969.66;;;3.53;100.00
43503;BME280;29098;48.184;16.298;2024-02-26T05:22:03;97954.97;;;3.61;100.00
43503;BME280;29098;48.184;16.298;2024-02-26T05:24:28;97910.38;;;3.55;100.00
43503;BME280;29098;48.184;16.298;2024-02-26T05:26:54;97972.97;;;3.79;100.00
43503;BME280;29098;48.184;16.298;2024-02-26T05:29:20;97939.75;;;3.41;100.00
43503;BME280;29098;48.184;16.298;2024-02-26T05:31:46;97924.47;;;3.38;100.00
43503;BME280;29098;48.184;16.298;2024-02-26T05:34:11;97944.44;;;3.46;100.00
43503;BME280;29098;48.184;16.298;2024-02-26T05:36:37;97956.53;;;3.38;100.00
43503;BME280;29098;48.184;16.298;2024-02-26T05:39:02;97971.16;;;3.48;100.00
43503;BME280;29098;48.184;16.298;2024-02-26T05:41:29;97945.41;;;3.13;100.00
43503;BME280;29098;48.184;16.298;2024-02-26T05:43:54;97981.69;;;3.14;100.00
43503;BME280;29098;48.184;16.298;2024-02-26T05:46:20;97932.13;;;2.91;100.00
43503;BME280;29098;48.184;16.298;2024-02-26T05:48:52;97948.06;;;2.96;100.00
43503;BME280;29098;48.184;16.298;2024-02-26T05:51:18;97947.97;;;2.73;100.00
43503;BME280;29098;48.184;16.298;2024-02-26T05:53:44;97999.81;;;2.99;100.00
43503;BME280;29098;48.184;16.298;2024-02-26T05:56:09;97964.63;;;3.04;100.00
43503;BME280;29098;48.184;16.298;2024-02-26T05:58:34;97978.50;;;2.87;100.00
43503;BME280;29098;48.184;16.298;2024-02-26T06:01:00;97939.97;;;2.83;100.00
43503;BME280;29098;48.184;16.298;2024-02-26T06:03:26;97974.59;;;2.92;100.00
43503;BME280;29098;48.184;16.298;2024-02-26T06:05:53;97969.25;;;2.85;100.00
43503;BME280;29098;48.184;16.298;2024-02-26T06:08:18;97960.59;;;2.84;100.00
43503;BME280;29098;48.184;16.298;2024-02-26T06:10:44;98004.53;;;2.96;100.00
43503;BME280;29098;48.184;16.298;2024-02-26T06:13:09;97964.06;;;2.77;100.00
43503;BME280;29098;48.184;16.298;2024-02-26T06:15:35;98016.22;;;3.08;100.00
43503;BME280;29098;48.184;16.298;2024-02-26T06:18:00;97951.38;;;2.65;100.00
43503;BME280;29098;48.184;16.298;2024-02-26T06:20:26;97998.50;;;2.87;100.00
43503;BME280;29098;48.184;16.298;2024-02-26T06:22:51;97964.41;;;2.73;100.00
43503;BME280;29098;48.184;16.298;2024-02-26T06:25:17;97974.13;;;2.71;100.00
43503;BME280;29098;48.184;16.298;2024-02-26T06:27:42;98029.25;;;3.08;100.00
43503;BME280;29098;48.184;16.298;2024-02-26T06:30:08;97972.81;;;2.92;100.00
43503;BME280;29098;48.184;16.298;2024-02-26T06:32:36;97987.72;;;3.15;100.00
43503;BME280;29098;48.184;16.298;2024-02-26T06:35:02;98018.25;;;3.38;100.00
43503;BME280;29098;48.184;16.298;2024-02-26T06:37:32;97974.56;;;3.48;100.00
43503;BME280;29098;48.184;16.298;2024-02-26T06:39:58;98036.59;;;3.93;100.00
43503;BME280;29098;48.184;16.298;2024-02-26T06:42:24;98034.13;;;4.23;100.00
43503;BME280;29098;48.184;16.298;2024-02-26T06:44:49;98014.94;;;4.16;100.00
43503;BME280;29098;48.184;16.298;2024-02-26T06:47:15;98024.63;;;4.30;100.00
43503;BME280;29098;48.184;16.298;2024-02-26T06:49:40;98009.28;;;4.35;100.00
43503;BME280;29098;48.184;16.298;2024-02-26T06:52:05;98035.44;;;4.65;100.00
43503;BME280;29098;48.184;16.298;2024-02-26T06:54:31;98007.84;;;4.71;100.00
43503;BME280;29098;48.184;16.298;2024-02-26T06:56:57;97989.03;;;4.76;100.00
43503;BME280;29098;48.184;16.298;2024-02-26T06:59:22;98047.44;;;5.13;100.00
43503;BME280;29098;48.184;16.298;2024-02-26T07:01:50;97981.03;;;4.92;100.00
43503;BME280;29098;48.184;16.298;2024-02-26T07:04:15;98024.56;;;5.15;100.00
43503;BME280;29098;48.184;16.298;2024-02-26T07:06:41;98051.59;;;5.23;100.00
43503;BME280;29098;48.184;16.298;2024-02-26T07:09:09;98002.94;;;5.21;100.00
43503;BME280;29098;48.184;16.298;2024-02-26T07:11:37;98017.53;;;5.31;100.00
43503;BME280;29098;48.184;16.298;2024-02-26T07:14:02;97987.97;;;5.15;100.00
43503;BME280;29098;48.184;16.298;2024-02-26T07:16:29;97976.00;;;5.21;100.00
43503;BME280;29098;48.184;16.298;2024-02-26T07:18:55;98004.09;;;5.34;100.00
43503;BME280;29098;48.184;16.298;2024-02-26T07:21:21;97993.81;;;5.47;100.00
43503;BME280;29098;48.184;16.298;2024-02-26T07:23:46;98049.78;;;5.68;100.00
43503;BME280;29098;48.184;16.298;2024-02-26T07:26:12;98053.03;;;5.85;100.00
43503;BME280;29098;48.184;16.298;2024-02-26T07:28:37;97993.63;;;5.64;100.00
43503;BME280;29098;48.184;16.298;2024-02-26T07:31:03;98035.44;;;5.79;100.00
43503;BME280;29098;48.184;16.298;2024-02-26T07:33:29;98040.06;;;5.99;100.00
43503;BME280;29098;48.184;16.298;2024-02-26T07:35:54;97993.88;;;5.69;100.00
43503;BME280;29098;48.184;16.298;2024-02-26T07:38:20;97984.50;;;5.75;100.00
43503;BME280;29098;48.184;16.298;2024-02-26T07:40:45;97996.16;;;5.94;100.00
43503;BME280;29098;48.184;16.298;2024-02-26T07:43:11;98045.94;;;6.16;100.00
43503;BME280;29098;48.184;16.298;2024-02-26T07:45:36;98053.28;;;6.27;100.00
43503;BME280;29098;48.184;16.298;2024-02-26T07:48:02;98031.84;;;6.17;100.00
43503;BME280;29098;48.184;16.298;2024-02-26T07:50:28;98033.22;;;6.13;100.00
43503;BME280;29098;48.184;16.298;2024-02-26T07:52:53;98023.00;;;6.18;100.00
43503;BME280;29098;48.184;16.298;2024-02-26T07:55:19;98058.75;;;6.48;100.00
43503;BME280;29098;48.184;16.298;2024-02-26T07:57:44;98067.25;;;6.56;100.00
43503;BME280;29098;48.184;16.298;2024-02-26T08:00:10;98036.84;;;6.34;100.00
43503;BME280;29098;48.184;16.298;2024-02-26T08:02:36;98041.59;;;6.45;100.00
43503;BME280;29098;48.184;16.298;2024-02-26T08:05:02;98065.69;;;6.62;100.00
43503;BME280;29098;48.184;16.298;2024-02-26T08:07:27;98032.09;;;6.66;100.00
43503;BME280;29098;48.184;16.298;2024-02-26T08:09:53;98030.25;;;6.60;100.00
43503;BME280;29098;48.184;16.298;2024-02-26T08:12:19;98057.47;;;6.87;100.00
43503;BME280;29098;48.184;16.298;2024-02-26T08:14:44;98073.47;;;6.99;100.00
43503;BME280;29098;48.184;16.298;2024-02-26T08:17:10;98037.44;;;6.79;100.00
43503;BME280;29098;48.184;16.298;2024-02-26T08:19:35;98060.50;;;6.91;100.00
43503;BME280;29098;48.184;16.298;2024-02-26T08:22:01;98065.16;;;7.17;100.00
43503;BME280;29098;48.184;16.298;2024-02-26T08:24:27;98042.66;;;7.01;100.00
43503;BME280;29098;48.184;16.298;2024-02-26T08:26:53;98067.94;;;7.16;100.00
43503;BME280;29098;48.184;16.298;2024-02-26T08:29:18;98025.34;;;7.07;100.00
43503;BME280;29098;48.184;16.298;2024-02-26T08:31:44;98031.50;;;7.21;100.00
43503;BME280;29098;48.184;16.298;2024-02-26T08:34:09;98034.97;;;7.28;100.00
43503;BME280;29098;48.184;16.298;2024-02-26T08:36:36;98005.28;;;7.21;100.00
43503;BME280;29098;48.184;16.298;2024-02-26T08:39:01;98054.78;;;7.37;100.00
43503;BME280;29098;48.184;16.298;2024-02-26T08:41:26;98029.50;;;7.30;100.00
43503;BME280;29098;48.184;16.298;2024-02-26T08:43:52;98048.03;;;7.57;100.00
43503;BME280;29098;48.184;16.298;2024-02-26T08:46:17;98052.25;;;7.51;100.00
43503;BME280;29098;48.184;16.298;2024-02-26T08:48:43;98035.66;;;7.44;100.00
43503;BME280;29098;48.184;16.298;2024-02-26T08:51:09;98055.53;;;7.66;100.00
43503;BME280;29098;48.184;16.298;2024-02-26T08:53:35;98026.41;;;7.54;100.00
43503;BME280;29098;48.184;16.298;2024-02-26T08:56:01;98079.88;;;7.95;100.00
43503;BME280;29098;48.184;16.298;2024-02-26T08:58:30;98007.97;;;7.83;100.00
43503;BME280;29098;48.184;16.298;2024-02-26T09:00:55;98030.22;;;8.01;100.00
43503;BME280;29098;48.184;16.298;2024-02-26T09:03:21;98018.31;;;7.91;100.00
43503;BME280;29098;48.184;16.298;2024-02-26T09:05:47;98039.59;;;8.23;100.00
43503;BME280;29098;48.184;16.298;2024-02-26T09:08:12;98032.25;;;8.05;100.00
43503;BME280;29098;48.184;16.298;2024-02-26T09:10:39;98052.13;;;8.28;100.00
43503;BME280;29098;48.184;16.298;2024-02-26T09:13:04;98064.34;;;8.76;98.95
43503;BME280;29098;48.184;16.298;2024-02-26T09:15:30;98059.06;;;8.70;99.81
43503;BME280;29098;48.184;16.298;2024-02-26T09:17:56;98055.44;;;8.64;99.63
43503;BME280;29098;48.184;16.298;2024-02-26T09:20:21;98055.44;;;8.77;99.47
43503;BME280;29098;48.184;16.298;2024-02-26T09:22:49;98047.34;;;8.86;98.41
43503;BME280;29098;48.184;16.298;2024-02-26T09:25:14;98045.13;;;9.03;98.33
43503;BME280;29098;48.184;16.298;2024-02-26T09:27:43;98035.00;;;9.00;94.14
43503;BME280;29098;48.184;16.298;2024-02-26T09:30:12;98036.16;;;9.31;94.77
43503;BME280;29098;48.184;16.298;2024-02-26T09:32:39;98039.16;;;9.48;91.42
43503;BME280;29098;48.184;16.298;2024-02-26T09:35:05;98042.78;;;9.61;88.69
43503;BME280;29098;48.184;16.298;2024-02-26T09:37:31;98067.41;;;9.80;87.82
43503;BME280;29098;48.184;16.298;2024-02-26T09:39:57;98023.31;;;9.75;85.91
43503;BME280;29098;48.184;16.298;2024-02-26T09:42:26;98032.38;;;9.86;85.33
43503;BME280;29098;48.184;16.298;2024-02-26T09:44:54;98021.16;;;9.97;83.84
43503;BME280;29098;48.184;16.298;2024-02-26T09:47:21;98012.25;;;9.98;83.58
43503;BME280;29098;48.184;16.298;2024-02-26T09:49:50;98051.56;;;10.32;83.69
43503;BME280;29098;48.184;16.298;2024-02-26T09:52:19;98030.41;;;10.13;82.00
43503;BME280;29098;48.184;16.298;2024-02-26T09:54:47;98071.88;;;10.64;80.73
43503;BME280;29098;48.184;16.298;2024-02-26T09:57:14;98042.22;;;10.43;81.38
43503;BME280;29098;48.184;16.298;2024-02-26T09:59:42;98067.84;;;10.87;79.21
43503;BME280;29098;48.184;16.298;2024-02-26T10:02:11;98055.31;;;10.57;80.40
43503;BME280;29098;48.184;16.298;2024-02-26T10:04:38;98046.75;;;10.61;79.98
43503;BME280;29098;48.184;16.298;2024-02-26T10:07:07;98047.66;;;10.99;77.09
43503;BME280;29098;48.184;16.298;2024-02-26T10:09:35;98015.16;;;10.54;76.80
43503;BME280;29098;48.184;16.298;2024-02-26T10:12:01;98044.59;;;10.77;77.16
43503;BME280;29098;48.184;16.298;2024-02-26T10:14:26;98044.06;;;10.93;78.59
43503;BME280;29098;48.184;16.298;2024-02-26T10:16:52;98052.00;;;11.12;75.99
43503;BME280;29098;48.184;16.298;2024-02-26T10:19:27;98042.34;;;11.24;74.58
43503;BME280;29098;48.184;16.298;2024-02-26T10:21:58;98063.72;;;11.42;74.39
43503;BME280;29098;48.184;16.298;2024-02-26T10:24:28;98047.72;;;11.36;74.05
43503;BME280;29098;48.184;16.298;2024-02-26T10:26:55;98042.53;;;11.48;74.15
43503;BME280;29098;48.184;16.298;2024-02-26T10:29:23;98069.34;;;11.64;72.91
43503;BME280;29098;48.184;16.298;2024-02-26T10:31:50;98041.84;;;11.53;72.36
43503;BME280;29098;48.184;16.298;2024-02-26T10:34:16;98056.38;;;11.81;71.55
43503;BME280;29098;48.184;16.298;2024-02-26T10:36:41;98013.78;;;11.77;70.04
43503;BME280;29098;48.184;16.298;2024-02-26T10:39:07;98066.06;;;12.06;71.29
43503;BME280;29098;48.184;16.298;2024-02-26T10:41:33;98055.09;;;12.02;71.04
43503;BME280;29098;48.184;16.298;2024-02-26T10:43:59;98027.34;;;11.81;70.64
43503;BME280;29098;48.184;16.298;2024-02-26T10:46:25;98069.91;;;12.22;71.01
43503;BME280;29098;48.184;16.298;2024-02-26T10:48:52;98054.47;;;12.38;71.38
43503;BME280;29098;48.184;16.298;2024-02-26T10:51:27;98037.59;;;12.51;71.12
43503;BME280;29098;48.184;16.298;2024-02-26T10:53:55;98056.91;;;12.51;70.33
43503;BME280;29098;48.184;16.298;2024-02-26T10:56:28;98045.41;;;12.57;68.92
43503;BME280;29098;48.184;16.298;2024-02-26T10:58:58;98024.88;;;12.59;70.33
43503;BME280;29098;48.184;16.298;2024-02-26T11:01:24;98028.09;;;12.73;69.35
43503;BME280;29098;48.184;16.298;2024-02-26T11:03:55;98008.75;;;12.61;68.52
43503;BME280;29098;48.184;16.298;2024-02-26T11:06:21;98061.59;;;13.04;68.61
43503;BME280;29098;48.184;16.298;2024-02-26T11:08:50;98050.31;;;13.08;66.88
43503;BME280;29098;48.184;16.298;2024-02-26T11:11:17;98039.25;;;13.11;65.66
43503;BME280;29098;48.184;16.298;2024-02-26T11:13:47;98065.97;;;13.46;66.33
43503;BME280;29098;48.184;16.298;2024-02-26T11:16:21;98025.78;;;13.49;66.30
43503;BME280;29098;48.184;16.298;2024-02-26T11:18:48;98052.94;;;13.68;63.55
43503;BME280;29098;48.184;16.298;2024-02-26T11:21:18;98045.31;;;13.72;62.07
43503;BME280;29098;48.184;16.298;2024-02-26T11:23:47;98012.31;;;13.62;60.33
43503;BME280;29098;48.184;16.298;2024-02-26T11:26:15;98059.94;;;14.15;58.19
43503;BME280;29098;48.184;16.298;2024-02-26T11:28:41;98005.84;;;13.99;56.64
43503;BME280;29098;48.184;16.298;2024-02-26T11:31:08;98055.91;;;14.59;56.18
43503;BME280;29098;48.184;16.298;2024-02-26T11:33:35;98029.03;;;14.21;53.04
43503;BME280;29098;48.184;16.298;2024-02-26T11:36:02;97994.78;;;14.02;52.95
43503;BME280;29098;48.184;16.298;2024-02-26T11:38:33;97986.13;;;14.24;52.29
43503;BME280;29098;48.184;16.298;2024-02-26T11:40:58;97993.63;;;13.98;54.18
43503;BME280;29098;48.184;16.298;2024-02-26T11:43:53;97999.63;;;14.22;53.03
43503;BME280;29098;48.184;16.298;2024-02-26T11:48:51;97995.56;;;13.74;52.16
43503;BME280;29098;48.184;16.298;2024-02-26T11:51:25;98010.66;;;13.73;52.13
43503;BME280;29098;48.184;16.298;2024-02-26T11:53:50;97977.63;;;13.76;52.38
43503;BME280;29098;48.184;16.298;2024-02-26T12:01:47;98006.00;;;13.92;52.48
43503;BME280;29098;48.184;16.298;2024-02-26T12:04:16;97963.69;;;13.97;51.16
43503;BME280;29098;48.184;16.298;2024-02-26T12:06:51;97975.63;;;13.83;53.50
43503;BME280;29098;48.184;16.298;2024-02-26T12:09:36;97991.56;;;13.71;52.97
43503;BME280;29098;48.184;16.298;2024-02-26T12:12:04;97949.41;;;13.69;52.03
43503;BME280;29098;48.184;16.298;2024-02-26T12:14:32;98018.97;;;13.94;51.42
43503;BME280;29098;48.184;16.298;2024-02-26T12:16:58;98006.25;;;13.79;52.18
43503;BME280;29098;48.184;16.298;2024-02-26T12:19:24;97984.88;;;13.68;51.02
43503;BME280;29098;48.184;16.298;2024-02-26T12:21:52;97973.03;;;13.71;52.01
43503;BME280;29098;48.184;16.298;2024-02-26T12:24:19;97975.81;;;13.93;51.32
43503;BME280;29098;48.184;16.298;2024-02-26T12:26:45;97967.81;;;14.05;51.49
43503;BME280;29098;48.184;16.298;2024-02-26T12:29:11;97921.22;;;13.92;50.76
43503;BME280;29098;48.184;16.298;2024-02-26T12:31:37;97961.28;;;13.96;51.28
43503;BME280;29098;48.184;16.298;2024-02-26T12:34:04;97996.72;;;14.07;51.90
43503;BME280;29098;48.184;16.298;2024-02-26T12:36:30;97940.44;;;13.70;51.83
43503;BME280;29098;48.184;16.298;2024-02-26T12:38:56;97950.41;;;13.80;52.60
43503;BME280;29098;48.184;16.298;2024-02-26T12:41:22;97937.97;;;13.81;52.01
43503;BME280;29098;48.184;16.298;2024-02-26T12:43:48;97969.34;;;14.18;51.75
43503;BME280;29098;48.184;16.298;2024-02-26T12:46:14;97957.44;;;14.04;51.26
43503;BME280;29098;48.184;16.298;2024-02-26T12:48:44;97959.56;;;14.53;51.12
43503;BME280;29098;48.184;16.298;2024-02-26T12:51:12;97962.78;;;14.89;50.73
43503;BME280;29098;48.184;16.298;2024-02-26T12:53:38;97978.53;;;15.63;48.41